Time;durP1;ratioP1;P1;durP2;ratioP2;P2;SDS_P1;SDS_P2;PMS_P1;PMS_P2;Temp;Humidity;BMP_temperature;BMP_pressure;BME280_temperature;BME280_humidity;BME280_pressure;Samples;Min_cycle;Max_cycle;Signal;HPM_P1;HPM_P2
2021/08/20 00:01:27;;;;;;;8.17;5.73;;;17.50;97.70;;;;;;5030672;28;20481;-68
2021/08/20 00:03:54;;;;;;;6.40;4.70;;;17.60;97.80;;;;;;5031123;28;20496;-70
2021/08/20 00:06:21;;;;;;;5.83;4.70;;;17.60;97.70;;;;;;5032084;28;20438;-70
2021/08/20 00:08:49;;;;;;;6.93;4.80;;;17.70;97.70;;;;;;5032002;28;20503;-68
2021/08/20 00:11:16;;;;;;;7.03;4.90;;;17.70;97.60;;;;;;5031391;28;20430;-68
2021/08/20 00:13:43;;;;;;;7.03;4.70;;;17.80;97.60;;;;;;5031787;28;20442;-68
2021/08/20 00:16:11;;;;;;;8.40;4.30;;;17.70;97.40;;;;;;5030419;28;20936;-68
2021/08/20 00:18:38;;;;;;;6.23;4.37;;;17.70;97.50;;;;;;5030594;28;20465;-69
2021/08/20 00:21:05;;;;;;;5.07;4.33;;;17.60;97.50;;;;;;5031277;28;20892;-68
2021/08/20 00:23:32;;;;;;;6.37;5.00;;;17.70;97.30;;;;;;5030824;28;20502;-68
2021/08/20 00:26:00;;;;;;;7.27;5.57;;;17.60;97.40;;;;;;5030699;28;20484;-69
2021/08/20 00:28:28;;;;;;;6.37;4.90;;;17.60;97.80;;;;;;5030683;28;20466;-68
2021/08/20 00:30:55;;;;;;;7.93;5.00;;;17.60;97.40;;;;;;5030400;28;20441;-68
2021/08/20 00:33:22;;;;;;;7.53;5.20;;;17.60;97.40;;;;;;5031292;28;20507;-68
2021/08/20 00:35:49;;;;;;;8.37;4.67;;;17.50;97.30;;;;;;5033063;28;20468;-68
2021/08/20 00:38:34;;;;;;;6.50;5.00;;;17.60;97.60;;;;;;5034288;28;20943;-67
2021/08/20 00:41:03;;;;;;;11.20;5.73;;;17.60;97.50;;;;;;5035003;28;20433;-68
2021/08/20 00:43:30;;;;;;;7.53;5.27;;;17.60;97.40;;;;;;5034936;28;20433;-68
2021/08/20 00:46:00;;;;;;;5.67;4.40;;;17.60;97.40;;;;;;5034998;28;20496;-68
2021/08/20 00:48:27;;;;;;;7.40;4.30;;;17.60;97.50;;;;;;5033240;28;20511;-68
2021/08/20 00:51:03;;;;;;;16.43;5.70;;;17.50;97.40;;;;;;5034921;28;20442;-68
2021/08/20 00:53:32;;;;;;;7.97;4.90;;;17.60;97.40;;;;;;5035433;28;20441;-68
2021/08/20 00:56:02;;;;;;;6.83;4.43;;;17.60;97.40;;;;;;5034979;28;20429;-68
2021/08/20 00:58:31;;;;;;;7.50;4.60;;;17.50;97.30;;;;;;5034480;28;20503;-69
2021/08/20 01:00:59;;;;;;;6.90;4.63;;;17.50;97.40;;;;;;5034703;28;20433;-69
2021/08/20 01:03:26;;;;;;;8.40;4.27;;;17.50;97.70;;;;;;5034706;28;20454;-68
2021/08/20 01:05:55;;;;;;;6.60;5.00;;;17.50;97.90;;;;;;5034417;28;20486;-67
2021/08/20 01:08:23;;;;;;;7.40;4.23;;;17.50;97.80;;;;;;5034500;28;20442;-69
2021/08/20 01:10:50;;;;;;;9.00;5.60;;;17.50;97.60;;;;;;5033482;28;20437;-69
2021/08/20 01:13:19;;;;;;;6.30;5.07;;;17.50;97.70;;;;;;5034384;28;20442;-68
2021/08/20 01:15:47;;;;;;;7.23;5.00;;;17.50;97.70;;;;;;5034622;28;20561;-68
2021/08/20 01:18:22;;;;;;;10.50;4.87;;;17.50;97.80;;;;;;5034627;28;20519;-68
2021/08/20 01:20:49;;;;;;;7.17;4.70;;;17.50;97.90;;;;;;5034878;28;20449;-68
2021/08/20 01:23:25;;;;;;;6.67;4.93;;;17.50;97.90;;;;;;5032712;28;20934;-68
2021/08/20 01:25:54;;;;;;;6.87;4.50;;;17.50;97.80;;;;;;5035210;28;20880;-68
2021/08/20 01:28:24;;;;;;;5.10;4.10;;;17.50;97.70;;;;;;5034120;28;20535;-68
2021/08/20 01:30:51;;;;;;;6.77;4.60;;;17.50;97.80;;;;;;5034618;28;20772;-68
2021/08/20 01:33:19;;;;;;;6.80;4.20;;;17.50;97.80;;;;;;5034035;28;20438;-68
2021/08/20 01:35:46;;;;;;;9.20;5.10;;;17.50;97.80;;;;;;5033857;28;20444;-68
2021/08/20 01:38:13;;;;;;;10.33;4.97;;;17.50;97.70;;;;;;5033703;28;20794;-68
2021/08/20 01:40:40;;;;;;;5.50;4.37;;;17.50;97.80;;;;;;5032131;28;20841;-68
2021/08/20 01:43:10;;;;;;;7.30;4.50;;;17.50;97.80;;;;;;5032788;28;20924;-69
2021/08/20 01:45:37;;;;;;;7.30;4.10;;;17.50;97.90;;;;;;5033123;28;20504;-68
2021/08/20 01:48:05;;;;;;;8.23;4.53;;;17.50;97.90;;;;;;5032494;28;20449;-68
2021/08/20 01:50:33;;;;;;;6.10;4.10;;;17.50;98.00;;;;;;5033533;28;20437;-68
2021/08/20 01:53:00;;;;;;;5.53;4.13;;;17.50;98.00;;;;;;5034023;28;20484;-68
2021/08/20 01:55:27;;;;;;;8.50;5.00;;;17.50;97.80;;;;;;5031969;28;20430;-68
2021/08/20 01:58:04;;;;;;;6.30;4.50;;;17.50;98.00;;;;;;5033847;28;20434;-68
2021/08/20 02:00:38;;;;;;;8.73;4.90;;;17.40;98.00;;;;;;5033780;28;20524;-69
2021/08/20 02:03:07;;;;;;;7.43;5.23;;;17.30;98.20;;;;;;5034068;28;20445;-68
2021/08/20 02:05:34;;;;;;;10.97;6.07;;;17.40;98.30;;;;;;5033738;28;20489;-69
2021/08/20 02:08:02;;;;;;;7.93;5.23;;;17.40;98.40;;;;;;5033592;28;20433;-69
2021/08/20 02:10:29;;;;;;;8.00;4.90;;;17.40;98.30;;;;;;5033166;28;20445;-68
2021/08/20 02:12:56;;;;;;;7.33;5.23;;;17.30;98.30;;;;;;5033854;28;20445;-69
2021/08/20 02:15:37;;;;;;;13.10;5.17;;;17.20;98.40;;;;;;5033167;28;20786;-70
2021/08/20 02:18:04;;;;;;;8.30;5.23;;;17.20;98.50;;;;;;5033684;28;20437;-69
2021/08/20 02:20:31;;;;;;;11.50;5.20;;;17.20;98.60;;;;;;5032563;28;20446;-69
2021/08/20 02:22:58;;;;;;;7.30;4.43;;;17.20;98.60;;;;;;5032390;28;20481;-68
2021/08/20 02:26:06;;;;;;;9.17;5.10;;;17.20;98.70;;;;;;5033123;28;20866;-68
2021/08/20 02:28:37;;;;;;;7.40;5.10;;;17.20;98.70;;;;;;5032354;28;20465;-68
2021/08/20 02:31:05;;;;;;;4.90;4.40;;;17.20;98.70;;;;;;5033982;28;20437;-69
2021/08/20 02:33:34;;;;;;;9.17;5.30;;;17.20;98.70;;;;;;5033119;28;20441;-69
2021/08/20 02:36:02;;;;;;;5.80;4.63;;;17.30;98.70;;;;;;5032578;28;20488;-68
2021/08/20 02:38:30;;;;;;;10.30;4.87;;;17.30;98.60;;;;;;5033587;28;20740;-69
2021/08/20 02:40:58;;;;;;;8.47;5.17;;;17.20;98.60;;;;;;5032897;28;20449;-68
2021/08/20 02:43:25;;;;;;;7.43;4.80;;;17.20;98.70;;;;;;5033076;28;20434;-68
2021/08/20 02:45:53;;;;;;;6.73;5.50;;;17.30;98.40;;;;;;5031071;28;21013;-72
2021/08/20 02:48:21;;;;;;;7.50;5.43;;;17.20;98.50;;;;;;5032292;28;20466;-69
2021/08/20 02:50:49;;;;;;;7.20;5.70;;;17.20;98.60;;;;;;5032305;28;20547;-68
2021/08/20 02:53:16;;;;;;;7.20;4.70;;;17.20;98.70;;;;;;5031994;28;20448;-69
2021/08/20 02:55:43;;;;;;;6.90;5.00;;;17.30;98.70;;;;;;5032290;28;20848;-69
2021/08/20 02:58:16;;;;;;;6.30;5.30;;;17.30;98.70;;;;;;5032185;28;20438;-69
2021/08/20 03:00:43;;;;;;;8.03;6.07;;;17.30;98.60;;;;;;5032772;28;20499;-68
2021/08/20 03:03:11;;;;;;;6.83;4.50;;;17.30;98.50;;;;;;5031794;28;20440;-69
2021/08/20 03:05:39;;;;;;;7.40;5.13;;;17.30;98.50;;;;;;5032215;28;20659;-68
2021/08/20 03:08:07;;;;;;;6.23;4.43;;;17.30;98.40;;;;;;5033256;28;20434;-68
2021/08/20 03:10:36;;;;;;;8.50;5.57;;;17.40;98.50;;;;;;5031420;28;20444;-69
2021/08/20 03:13:04;;;;;;;9.23;4.80;;;17.30;98.40;;;;;;5032596;28;20434;-70
2021/08/20 03:15:32;;;;;;;9.23;5.00;;;17.30;98.30;;;;;;5032526;28;20442;-68
2021/08/20 03:18:00;;;;;;;7.40;4.70;;;17.30;98.40;;;;;;5031915;28;20446;-68
2021/08/20 03:20:27;;;;;;;11.30;6.20;;;17.30;98.30;;;;;;5032109;28;20497;-68
2021/08/20 03:22:55;;;;;;;5.00;4.30;;;17.30;98.30;;;;;;5032205;28;20445;-68
2021/08/20 03:25:23;;;;;;;11.57;5.63;;;17.30;98.50;;;;;;5032395;28;20477;-68
2021/08/20 03:27:50;;;;;;;8.13;4.87;;;17.30;98.50;;;;;;5031538;28;20909;-69
2021/08/20 03:30:17;;;;;;;6.90;5.10;;;17.30;98.40;;;;;;5032611;28;20446;-68
2021/08/20 03:32:44;;;;;;;7.87;4.20;;;17.30;98.30;;;;;;5032192;28;20849;-69
2021/08/20 03:35:13;;;;;;;8.53;4.97;;;17.20;98.30;;;;;;5032008;28;20450;-68
2021/08/20 03:37:40;;;;;;;6.90;5.43;;;17.20;98.50;;;;;;5031751;28;20449;-69
2021/08/20 03:40:10;;;;;;;5.17;4.67;;;17.20;98.40;;;;;;5031243;28;20537;-69
2021/08/20 03:42:37;;;;;;;5.70;5.10;;;17.20;98.40;;;;;;5032001;28;20613;-69
2021/08/20 03:45:04;;;;;;;7.60;5.80;;;17.30;98.30;;;;;;5031669;28;20446;-68
2021/08/20 03:47:37;;;;;;;6.50;4.93;;;17.30;98.30;;;;;;5031688;28;20434;-68
2021/08/20 03:50:14;;;;;;;8.37;6.07;;;17.30;98.30;;;;;;5032255;28;20450;-69
2021/08/20 03:52:41;;;;;;;5.47;4.77;;;17.30;98.20;;;;;;5029548;28;21006;-68
2021/08/20 03:55:10;;;;;;;7.23;5.87;;;17.40;98.30;;;;;;5031958;28;20457;-68
2021/08/20 03:57:37;;;;;;;7.63;5.90;;;17.40;98.20;;;;;;5031480;28;20503;-69
2021/08/20 04:00:06;;;;;;;6.47;5.30;;;17.40;98.30;;;;;;5031491;28;20800;-68
2021/08/20 04:02:33;;;;;;;8.57;5.80;;;17.40;98.30;;;;;;5031662;28;20437;-68
2021/08/20 04:05:02;;;;;;;7.53;5.70;;;17.40;98.30;;;;;;5031310;28;20796;-68
2021/08/20 04:07:38;;;;;;;10.53;5.17;;;17.30;98.20;;;;;;5031502;28;20473;-69
2021/08/20 04:10:06;;;;;;;9.47;7.17;;;17.30;98.50;;;;;;5032588;28;20437;-68
2021/08/20 04:12:42;;;;;;;6.00;4.23;;;17.30;98.20;;;;;;5035908;28;20985;-68
2021/08/20 04:15:12;;;;;;;6.40;4.30;;;17.20;98.40;;;;;;5035812;28;20425;-73
2021/08/20 04:18:08;;;;;;;6.33;4.57;;;17.20;98.60;;;;;;5035644;28;20438;-69
2021/08/20 04:23:21;;;;;;;7.50;4.63;;;17.30;98.80;;;;;;5035926;28;20446;-67
2021/08/20 04:25:48;;;;;;;7.53;4.40;;;17.20;98.70;;;;;;5035486;28;20575;-68
2021/08/20 04:28:23;;;;;;;5.47;4.53;;;17.30;98.80;;;;;;5035174;28;20567;-69
2021/08/20 04:30:53;;;;;;;7.10;5.20;;;17.30;98.80;;;;;;5035257;28;20515;-68
2021/08/20 04:33:22;;;;;;;8.43;5.63;;;17.30;98.60;;;;;;5035464;28;20434;-68
2021/08/20 04:35:49;;;;;;;7.07;5.07;;;17.30;98.60;;;;;;5035409;28;20843;-68
2021/08/20 04:38:17;;;;;;;6.80;5.03;;;17.40;98.60;;;;;;5035402;28;20442;-68
2021/08/20 04:40:50;;;;;;;8.00;5.03;;;17.40;98.50;;;;;;5035335;28;20452;-71
2021/08/20 04:43:25;;;;;;;9.60;4.43;;;17.40;98.50;;;;;;5035931;28;20434;-69
2021/08/20 04:45:52;;;;;;;7.00;4.80;;;17.40;98.60;;;;;;5035536;28;20472;-68
2021/08/20 04:48:20;;;;;;;5.93;4.43;;;17.50;98.40;;;;;;5034979;28;20438;-75
2021/08/20 04:50:50;;;;;;;6.27;4.67;;;17.40;98.20;;;;;;5035504;28;20483;-69
2021/08/20 04:53:27;;;;;;;7.73;5.10;;;17.40;98.00;;;;;;5035113;28;20444;-70
2021/08/20 04:56:01;;;;;;;6.83;5.00;;;17.40;98.10;;;;;;5034101;28;20449;-69
2021/08/20 04:58:29;;;;;;;7.23;5.53;;;17.40;98.30;;;;;;5035267;28;20445;-73
2021/08/20 05:00:57;;;;;;;6.40;4.70;;;17.40;98.30;;;;;;5035144;28;20437;-69
2021/08/20 05:03:25;;;;;;;6.70;4.57;;;17.40;98.40;;;;;;5035838;28;20487;-70
2021/08/20 05:05:58;;;;;;;8.77;5.30;;;17.40;98.50;;;;;;5035115;28;20563;-69
2021/08/20 05:08:26;;;;;;;8.20;6.07;;;17.50;98.60;;;;;;5035439;28;20468;-69
2021/08/20 05:10:59;;;;;;;5.90;4.77;;;17.50;98.40;;;;;;5035271;28;20532;-69
2021/08/20 05:13:26;;;;;;;6.60;4.37;;;17.50;98.50;;;;;;5035178;28;20437;-69
2021/08/20 05:15:55;;;;;;;12.73;5.43;;;17.50;98.40;;;;;;5034894;28;20839;-71
2021/08/20 05:18:22;;;;;;;8.93;5.50;;;17.50;98.30;;;;;;5035046;28;20492;-69
2021/08/20 05:20:49;;;;;;;8.00;5.20;;;17.50;98.40;;;;;;5034598;28;20469;-72
2021/08/20 05:23:17;;;;;;;6.10;4.10;;;17.50;98.40;;;;;;5035493;28;20449;-69
2021/08/20 05:25:45;;;;;;;17.90;9.53;;;17.60;98.60;;;;;;5034630;28;20782;-69
2021/08/20 05:28:15;;;;;;;9.07;6.27;;;17.60;98.20;;;;;;5034044;28;21033;-70
2021/08/20 05:30:42;;;;;;;10.43;6.87;;;17.60;98.20;;;;;;5035165;28;20433;-69
2021/08/20 05:33:12;;;;;;;8.80;5.67;;;17.60;98.30;;;;;;5034892;28;20434;-70
2021/08/20 05:35:40;;;;;;;7.00;5.13;;;17.70;98.40;;;;;;5034933;28;20446;-75
2021/08/20 05:38:07;;;;;;;7.40;4.83;;;17.70;98.50;;;;;;5035054;28;20480;-69
2021/08/20 05:40:35;;;;;;;5.53;4.80;;;17.70;98.40;;;;;;5034626;28;20448;-69
2021/08/20 05:43:15;;;;;;;7.07;5.10;;;17.70;98.30;;;;;;5035403;28;20442;-70
2021/08/20 05:45:42;;;;;;;7.73;5.87;;;17.70;98.40;;;;;;5034985;28;20920;-69
2021/08/20 05:48:11;;;;;;;6.50;5.07;;;17.70;98.20;;;;;;5034365;28;20446;-69
2021/08/20 05:50:38;;;;;;;6.57;4.93;;;17.80;98.40;;;;;;5035151;28;20532;-69
2021/08/20 05:53:05;;;;;;;5.97;4.63;;;17.90;98.50;;;;;;5035043;28;20974;-69
2021/08/20 05:55:34;;;;;;;6.93;5.13;;;18.00;98.60;;;;;;5034674;28;20466;-69
2021/08/20 05:58:05;;;;;;;9.47;6.10;;;18.20;98.70;;;;;;5034538;28;20442;-69
2021/08/20 06:00:33;;;;;;;9.03;5.37;;;18.30;98.50;;;;;;5034575;28;20438;-70
2021/08/20 06:03:00;;;;;;;10.00;5.10;;;18.40;98.20;;;;;;5034454;28;20492;-70
2021/08/20 06:05:28;;;;;;;8.77;5.20;;;18.50;98.20;;;;;;5033926;28;20442;-69
2021/08/20 06:07:56;;;;;;;5.30;4.70;;;18.60;98.20;;;;;;5033809;28;20485;-69
2021/08/20 06:10:23;;;;;;;6.87;5.70;;;18.70;98.10;;;;;;5034385;28;20438;-70
2021/08/20 06:12:51;;;;;;;5.60;4.43;;;18.80;97.90;;;;;;5033968;28;20446;-70
2021/08/20 06:15:19;;;;;;;6.50;5.00;;;18.90;97.90;;;;;;5033541;28;20446;-70
2021/08/20 06:17:46;;;;;;;8.50;4.73;;;19.10;97.60;;;;;;5033811;28;20446;-70
2021/08/20 06:20:14;;;;;;;6.43;4.90;;;19.20;97.10;;;;;;5034483;28;20438;-69
2021/08/20 06:22:42;;;;;;;7.20;5.00;;;19.40;97.10;;;;;;5034400;28;20839;-69
2021/08/20 06:25:11;;;;;;;8.30;5.30;;;19.50;96.90;;;;;;5033556;28;20495;-70
2021/08/20 06:27:38;;;;;;;8.70;5.77;;;19.70;96.50;;;;;;5033737;28;20580;-71
2021/08/20 06:30:06;;;;;;;6.00;4.53;;;19.90;96.60;;;;;;5033877;28;20442;-70
2021/08/20 06:32:33;;;;;;;5.53;4.57;;;20.10;95.80;;;;;;5033342;28;20445;-73
2021/08/20 06:35:01;;;;;;;7.20;4.97;;;20.10;94.00;;;;;;5033581;28;20450;-69
2021/08/20 06:37:28;;;;;;;5.23;4.40;;;20.20;94.30;;;;;;5033881;28;20434;-70
2021/08/20 06:39:56;;;;;;;7.77;5.27;;;20.20;94.10;;;;;;5033556;28;20442;-70
2021/08/20 06:42:23;;;;;;;7.10;5.23;;;20.30;94.20;;;;;;5033543;28;20441;-69
2021/08/20 06:44:51;;;;;;;6.20;5.00;;;20.40;94.00;;;;;;5033735;28;20442;-70
2021/08/20 06:47:19;;;;;;;6.97;5.63;;;20.60;93.60;;;;;;5033505;28;20543;-70
2021/08/20 06:49:46;;;;;;;5.90;5.03;;;20.70;93.50;;;;;;5033063;28;20517;-69
2021/08/20 06:52:13;;;;;;;8.90;5.37;;;20.90;92.50;;;;;;5033638;28;20442;-69
2021/08/20 06:54:40;;;;;;;6.23;5.00;;;20.90;92.30;;;;;;5032964;28;20446;-70
2021/08/20 06:57:10;;;;;;;5.27;4.13;;;21.00;92.30;;;;;;5033297;28;20523;-70
2021/08/20 06:59:44;;;;;;;6.33;4.97;;;21.00;91.90;;;;;;5033082;28;20782;-70
2021/08/20 07:02:11;;;;;;;5.90;4.73;;;21.10;92.20;;;;;;5033604;28;20833;-69
2021/08/20 07:04:38;;;;;;;7.20;5.70;;;21.20;92.00;;;;;;5033174;28;20441;-70
2021/08/20 07:07:06;;;;;;;5.40;4.33;;;21.20;91.60;;;;;;5033347;28;20485;-69
2021/08/20 07:09:33;;;;;;;6.43;4.80;;;21.40;91.20;;;;;;5032634;28;20445;-70
2021/08/20 07:12:00;;;;;;;8.90;5.30;;;21.50;91.60;;;;;;5033568;28;20511;-69
2021/08/20 07:14:29;;;;;;;7.73;5.00;;;21.70;91.20;;;;;;5033078;28;20433;-69
2021/08/20 07:16:56;;;;;;;7.07;5.20;;;21.80;91.10;;;;;;5033026;28;20842;-70
2021/08/20 07:19:23;;;;;;;6.47;4.53;;;21.80;90.10;;;;;;5033223;28;20488;-70
2021/08/20 07:21:56;;;;;;;7.87;5.83;;;21.80;89.90;;;;;;5032768;28;20972;-69
2021/08/20 07:24:24;;;;;;;6.27;4.90;;;21.80;89.10;;;;;;5033132;28;20437;-69
2021/08/20 07:26:51;;;;;;;7.83;4.93;;;21.80;90.00;;;;;;5032428;28;20490;-68
2021/08/20 07:29:18;;;;;;;6.90;5.10;;;21.80;89.20;;;;;;5032304;28;20849;-69
2021/08/20 07:31:46;;;;;;;6.47;5.13;;;21.80;89.80;;;;;;5032556;28;20441;-67
2021/08/20 07:34:16;;;;;;;7.73;5.50;;;21.90;89.00;;;;;;5032617;28;20442;-68
2021/08/20 07:36:43;;;;;;;7.07;5.40;;;21.90;89.70;;;;;;5032423;28;20442;-67
2021/08/20 07:39:10;;;;;;;5.57;4.93;;;22.00;89.60;;;;;;5031961;28;20450;-68
2021/08/20 07:41:48;;;;;;;6.63;5.10;;;22.10;89.80;;;;;;5032359;28;20714;-70
2021/08/20 07:44:15;;;;;;;9.30;5.43;;;22.30;90.40;;;;;;5032527;28;20464;-67
2021/08/20 07:47:00;;;;;;;6.87;4.97;;;22.60;88.70;;;;;;5031807;28;20559;-67
2021/08/20 07:49:29;;;;;;;8.00;4.60;;;22.70;87.30;;;;;;5031489;28;20516;-70
2021/08/20 07:51:57;;;;;;;6.47;5.50;;;23.00;85.80;;;;;;5032397;28;20939;-70
2021/08/20 07:54:25;;;;;;;6.40;4.73;;;23.20;85.70;;;;;;5032616;28;20536;-70
2021/08/20 07:56:52;;;;;;;8.57;6.50;;;23.30;84.00;;;;;;5031818;28;20932;-70
2021/08/20 07:59:20;;;;;;;7.40;5.30;;;23.40;82.60;;;;;;5032586;28;21457;-70
2021/08/20 08:01:47;;;;;;;6.70;4.90;;;23.40;82.10;;;;;;5032156;28;20450;-67
2021/08/20 08:04:16;;;;;;;5.73;4.83;;;23.50;82.30;;;;;;5032664;28;20496;-67
2021/08/20 08:06:43;;;;;;;5.67;4.30;;;23.70;82.30;;;;;;5031473;28;20552;-67
2021/08/20 08:09:10;;;;;;;6.17;4.30;;;23.90;83.70;;;;;;5031926;28;20469;-69
2021/08/20 08:11:37;;;;;;;6.87;5.00;;;24.10;83.30;;;;;;5031714;28;20827;-68
2021/08/20 08:14:05;;;;;;;6.43;5.00;;;24.50;84.40;;;;;;5032066;28;20917;-68
2021/08/20 08:16:35;;;;;;;9.80;5.17;;;24.80;80.40;;;;;;5031862;28;20447;-68
2021/08/20 08:19:02;;;;;;;6.27;4.47;;;25.10;81.20;;;;;;5032440;28;20935;-68
2021/08/20 08:21:31;;;;;;;8.63;5.10;;;25.40;79.20;;;;;;5032095;28;20448;-68
2021/08/20 08:23:58;;;;;;;8.43;6.80;;;25.70;79.00;;;;;;5031613;28;20438;-68
2021/08/20 08:26:26;;;;;;;6.93;5.23;;;26.00;79.00;;;;;;5031100;28;20842;-68
2021/08/20 08:28:54;;;;;;;5.33;4.80;;;26.50;77.50;;;;;;5031453;28;20484;-68
2021/08/20 08:31:21;;;;;;;6.70;5.40;;;26.90;75.90;;;;;;5032127;28;20844;-68
2021/08/20 08:33:50;;;;;;;7.10;4.90;;;27.30;71.60;;;;;;5031581;28;20908;-69
2021/08/20 08:36:17;;;;;;;5.77;5.17;;;27.60;69.60;;;;;;5032053;28;20441;-68
2021/08/20 08:38:46;;;;;;;6.00;4.57;;;27.80;68.10;;;;;;5031869;28;20430;-68
2021/08/20 08:41:13;;;;;;;5.40;4.23;;;28.00;66.60;;;;;;5031527;28;20917;-68
2021/08/20 08:43:42;;;;;;;6.53;4.60;;;28.10;66.20;;;;;;5031066;28;20503;-68
2021/08/20 08:46:20;;;;;;;8.47;4.90;;;28.10;64.90;;;;;;5031652;28;20531;-69
2021/08/20 08:48:47;;;;;;;5.80;4.97;;;28.20;66.20;;;;;;5032181;28;20445;-68
2021/08/20 08:51:14;;;;;;;5.70;4.80;;;28.20;63.30;;;;;;5031587;28;20885;-68
2021/08/20 08:53:42;;;;;;;8.40;4.67;;;28.30;63.30;;;;;;5031625;28;20505;-72
2021/08/20 08:56:11;;;;;;;6.33;4.80;;;28.50;65.20;;;;;;5032850;28;20434;-68
2021/08/20 08:58:38;;;;;;;6.90;5.40;;;28.50;63.90;;;;;;5035910;28;20602;-72
2021/08/20 09:01:30;;;;;;;9.43;5.27;;;28.60;61.30;;;;;;5035074;28;20844;-68
2021/08/20 09:04:09;;;;;;;6.30;4.57;;;28.60;60.40;;;;;;5035886;28;20773;-68
2021/08/20 09:06:37;;;;;;;8.10;4.67;;;28.70;59.50;;;;;;5035333;28;20442;-68
2021/08/20 09:09:06;;;;;;;7.67;5.10;;;28.80;59.20;;;;;;5035354;28;20503;-68
2021/08/20 09:11:35;;;;;;;5.50;4.50;;;28.70;58.10;;;;;;5034832;28;20440;-68
2021/08/20 09:14:02;;;;;;;7.13;5.83;;;28.80;58.00;;;;;;5034747;28;20434;-69
2021/08/20 09:16:37;;;;;;;5.50;3.90;;;28.90;58.90;;;;;;5034999;28;20525;-68
2021/08/20 09:19:09;;;;;;;6.97;5.20;;;28.90;59.40;;;;;;5034931;28;20436;-69
2021/08/20 09:21:37;;;;;;;6.20;4.87;;;28.90;58.20;;;;;;5034939;28;20612;-68
2021/08/20 09:24:25;;;;;;;6.20;4.90;;;28.90;57.90;;;;;;5034770;28;20449;-68
2021/08/20 09:26:54;;;;;;;4.60;3.80;;;29.00;59.70;;;;;;5033151;28;20507;-68
2021/08/20 09:29:22;;;;;;;5.33;4.27;;;29.10;59.50;;;;;;5034354;28;20480;-71
2021/08/20 09:31:53;;;;;;;4.97;4.10;;;29.20;57.90;;;;;;5034878;28;20444;-68
2021/08/20 09:34:30;;;;;;;6.03;4.17;;;29.40;53.30;;;;;;5034736;28;20442;-71
2021/08/20 09:37:14;;;;;;;6.00;3.80;;;29.60;52.60;;;;;;5035462;28;20445;-68
2021/08/20 09:39:45;;;;;;;4.83;2.97;;;29.90;53.70;;;;;;5034770;28;20438;-69
2021/08/20 09:42:15;;;;;;;6.17;4.07;;;30.20;52.20;;;;;;5034413;28;20437;-69
2021/08/20 09:44:43;;;;;;;4.40;3.63;;;30.40;51.30;;;;;;5034848;28;20449;-69
2021/08/20 09:47:11;;;;;;;5.00;4.27;;;30.60;51.60;;;;;;5034634;28;20504;-68
2021/08/20 09:50:01;;;;;;;4.80;4.30;;;30.80;53.00;;;;;;5034622;28;20552;-68
2021/08/20 09:52:30;;;;;;;9.27;4.67;;;30.80;50.20;;;;;;5034803;28;20504;-68
2021/08/20 09:55:04;;;;;;;4.83;3.50;;;30.70;47.80;;;;;;5034290;28;20434;-69
2021/08/20 09:57:34;;;;;;;8.93;5.07;;;30.80;49.50;;;;;;5034631;28;20483;-73
2021/08/20 10:00:01;;;;;;;6.20;4.10;;;31.00;50.70;;;;;;5034500;28;20445;-69
2021/08/20 10:02:29;;;;;;;5.50;4.30;;;31.10;51.40;;;;;;5034355;28;20437;-69
2021/08/20 10:04:58;;;;;;;5.83;4.13;;;31.20;49.70;;;;;;5034434;28;20442;-68
2021/08/20 10:07:29;;;;;;;4.90;3.77;;;31.10;48.20;;;;;;5032947;28;20736;-68
2021/08/20 10:09:56;;;;;;;4.60;3.47;;;30.90;48.00;;;;;;5034458;28;20520;-68
2021/08/20 10:12:25;;;;;;;4.97;3.27;;;30.90;48.40;;;;;;5033927;28;20473;-68
2021/08/20 10:14:55;;;;;;;5.10;3.70;;;31.00;51.30;;;;;;5034055;28;20456;-68
2021/08/20 10:17:22;;;;;;;6.83;4.43;;;31.30;50.80;;;;;;5034247;28;20839;-69
2021/08/20 10:19:49;;;;;;;6.50;4.70;;;31.50;45.90;;;;;;5033436;28;20437;-69
2021/08/20 10:22:28;;;;;;;4.17;3.27;;;31.60;46.10;;;;;;5033382;28;20438;-69
2021/08/20 10:24:55;;;;;;;5.50;3.60;;;31.50;45.60;;;;;;5034139;28;20453;-68
2021/08/20 10:27:22;;;;;;;5.30;3.90;;;31.70;47.10;;;;;;5033803;28;21029;-68
2021/08/20 10:29:52;;;;;;;5.40;3.57;;;31.70;45.20;;;;;;5033973;28;20469;-68
2021/08/20 10:32:22;;;;;;;6.43;4.07;;;31.70;43.80;;;;;;5033640;28;20488;-69
2021/08/20 10:34:49;;;;;;;4.80;3.80;;;31.60;44.20;;;;;;5034044;28;20442;-68
2021/08/20 10:37:26;;;;;;;6.37;3.50;;;31.50;44.10;;;;;;5033896;28;20438;-68
2021/08/20 10:40:01;;;;;;;6.70;4.23;;;31.40;45.30;;;;;;5034358;28;20445;-69
2021/08/20 10:42:40;;;;;;;5.80;4.00;;;31.40;44.90;;;;;;5033509;28;20449;-69
2021/08/20 10:45:09;;;;;;;3.90;3.13;;;31.40;46.00;;;;;;5033363;28;20809;-69
2021/08/20 10:47:38;;;;;;;6.57;3.57;;;31.50;45.40;;;;;;5033159;28;20539;-69
2021/08/20 10:50:14;;;;;;;4.60;3.70;;;31.70;45.00;;;;;;5033378;28;20441;-69
2021/08/20 10:52:43;;;;;;;4.50;3.20;;;31.80;44.40;;;;;;5033646;28;20831;-68
2021/08/20 10:55:16;;;;;;;6.60;3.70;;;31.80;43.60;;;;;;5033097;28;20844;-68
2021/08/20 10:58:06;;;;;;;5.10;3.20;;;31.70;43.70;;;;;;5033779;28;20433;-68
2021/08/20 11:00:35;;;;;;;4.80;3.80;;;31.70;43.90;;;;;;5033338;28;20442;-68
2021/08/20 11:03:05;;;;;;;4.67;3.30;;;31.60;43.50;;;;;;5033526;28;20438;-68
2021/08/20 11:05:50;;;;;;;4.53;3.70;;;31.60;42.80;;;;;;5032889;28;20440;-69
2021/08/20 11:08:46;;;;;;;8.80;4.00;;;31.50;43.40;;;;;;5032862;28;20481;-70
2021/08/20 11:11:47;;;;;;;3.60;3.13;;;31.40;41.80;;;;;;5032622;28;20901;-69
2021/08/20 11:14:38;;;;;;;4.77;3.33;;;31.40;43.00;;;;;;5032818;28;20434;-70
2021/08/20 11:17:07;;;;;;;4.10;2.93;;;31.40;43.00;;;;;;5017626;28;20446;-69
2021/08/20 11:19:57;;;;;;;4.37;2.73;;;31.20;41.60;;;;;;5032626;28;20440;-68
2021/08/20 11:22:30;;;;;;;4.80;3.10;;;31.00;43.40;;;;;;5028594;28;20842;-70
2021/08/20 11:25:12;;;;;;;3.70;2.70;;;31.00;45.30;;;;;;5032769;28;20442;-68
2021/08/20 11:28:22;;;;;;;3.83;2.83;;;31.00;44.10;;;;;;5031821;28;20524;-70
2021/08/20 11:30:58;;;;;;;5.17;3.53;;;30.90;42.20;;;;;;5012437;28;20810;-68
2021/08/20 11:33:26;;;;;;;4.57;3.17;;;30.90;42.70;;;;;;5013281;28;20458;-68
2021/08/20 11:35:59;;;;;;;5.53;3.27;;;31.10;43.40;;;;;;5012608;28;20454;-74
2021/08/20 11:38:29;;;;;;;5.47;3.67;;;31.20;42.30;;;;;;5012745;28;20435;-69
2021/08/20 11:41:02;;;;;;;5.50;3.93;;;31.20;42.00;;;;;;5011876;28;20525;-68
2021/08/20 11:43:30;;;;;;;5.07;3.40;;;31.10;42.20;;;;;;4994770;28;20834;-68
2021/08/20 11:46:07;;;;;;;4.57;3.27;;;31.20;42.20;;;;;;5012399;28;21086;-68
2021/08/20 11:48:44;;;;;;;6.70;3.90;;;31.20;41.30;;;;;;5012864;28;20490;-68
2021/08/20 11:51:14;;;;;;;4.20;3.07;;;31.20;40.30;;;;;;5013048;28;20485;-68
2021/08/20 11:53:43;;;;;;;5.47;3.30;;;31.30;41.00;;;;;;5011959;28;20439;-68
2021/08/20 11:56:12;;;;;;;4.73;3.60;;;31.30;40.80;;;;;;5012095;28;20945;-68
2021/08/20 11:58:40;;;;;;;5.50;3.90;;;31.30;40.60;;;;;;5012078;28;21015;-70
2021/08/20 12:01:23;;;;;;;5.50;3.60;;;31.40;42.20;;;;;;5012989;28;20506;-69
2021/08/20 12:03:51;;;;;;;3.70;3.30;;;31.50;40.20;;;;;;5012495;28;20471;-68
2021/08/20 12:06:28;;;;;;;4.13;3.60;;;31.50;40.30;;;;;;5012732;28;20492;-68
2021/08/20 12:09:11;;;;;;;6.87;3.20;;;31.60;40.80;;;;;;5012515;28;20502;-68
2021/08/20 12:11:38;;;;;;;4.70;3.23;;;31.60;42.90;;;;;;5010262;28;20450;-70
2021/08/20 12:14:06;;;;;;;4.60;3.10;;;31.70;41.90;;;;;;5012026;28;20446;-69
2021/08/20 12:16:45;;;;;;;4.00;3.13;;;31.60;40.60;;;;;;5011874;28;20921;-68
2021/08/20 12:19:23;;;;;;;5.70;3.80;;;31.40;40.00;;;;;;5012646;28;20434;-69
2021/08/20 12:21:53;;;;;;;6.93;3.47;;;31.30;40.00;;;;;;5012747;28;20446;-68
2021/08/20 12:24:40;;;;;;;4.97;2.97;;;31.10;40.30;;;;;;5012919;28;20500;-68
2021/08/20 12:27:16;;;;;;;4.70;3.03;;;30.90;40.70;;;;;;5013045;28;20484;-68
2021/08/20 12:29:44;;;;;;;4.83;2.80;;;30.90;42.60;;;;;;5011214;28;20490;-69
2021/08/20 12:32:21;;;;;;;4.80;3.40;;;30.90;41.70;;;;;;5015053;28;20834;-69
2021/08/20 12:34:58;;;;;;;3.73;3.17;;;30.90;41.90;;;;;;5016951;28;20988;-68
2021/08/20 12:37:27;;;;;;;3.53;2.87;;;30.90;42.20;;;;;;5016423;28;20450;-68
2021/08/20 12:40:06;;;;;;;6.33;3.50;;;31.00;42.50;;;;;;5016531;28;20496;-69
2021/08/20 12:42:34;;;;;;;5.77;3.40;;;31.00;41.60;;;;;;5016006;28;20440;-70
2021/08/20 12:45:11;;;;;;;3.83;3.20;;;31.00;41.40;;;;;;5015472;28;20488;-69
2021/08/20 12:47:39;;;;;;;4.40;3.37;;;31.10;41.00;;;;;;5015378;28;20442;-69
2021/08/20 12:50:08;;;;;;;4.43;3.80;;;31.10;40.50;;;;;;5015446;28;20902;-69
2021/08/20 12:52:44;;;;;;;4.40;3.37;;;31.00;40.80;;;;;;5015507;28;20827;-68
2021/08/20 12:55:33;;;;;;;4.90;3.10;;;31.00;39.50;;;;;;5015971;28;20820;-68
2021/08/20 12:58:01;;;;;;;3.80;2.80;;;30.90;40.00;;;;;;5016142;28;20793;-68
2021/08/20 13:00:31;;;;;;;3.63;2.40;;;30.80;41.40;;;;;;5015590;28;20442;-68
2021/08/20 13:03:00;;;;;;;4.37;3.40;;;30.70;41.50;;;;;;5015233;28;20444;-68
2021/08/20 13:05:27;;;;;;;6.37;3.40;;;30.70;42.50;;;;;;5015449;28;20526;-68